sensor_id;sensor_type;location;lat;lon;timestamp;temperature;humidity
17053;DHT22;8643;48.824;11.422;2023-02-17T00:01:41;3.00;99.90
17053;DHT22;8643;48.824;11.422;2023-02-17T00:04:10;2.90;99.90
17053;DHT22;8643;48.824;11.422;2023-02-17T00:06:40;2.80;99.90
17053;DHT22;8643;48.824;11.422;2023-02-17T00:09:08;2.80;99.90
17053;DHT22;8643;48.824;11.422;2023-02-17T00:11:37;2.70;99.90
17053;DHT22;8643;48.824;11.422;2023-02-17T00:19:05;2.60;99.90
17053;DHT22;8643;48.824;11.422;2023-02-17T00:21:53;2.50;99.90
17053;DHT22;8643;48.824;11.422;2023-02-17T00:24:23;2.40;99.90
17053;DHT22;8643;48.824;11.422;2023-02-17T00:26:52;2.30;99.90
17053;DHT22;8643;48.824;11.422;2023-02-17T00:29:25;2.30;99.90
17053;DHT22;8643;48.824;11.422;2023-02-17T00:31:54;2.40;99.90
17053;DHT22;8643;48.824;11.422;2023-02-17T00:34:23;2.40;99.90
17053;DHT22;8643;48.824;11.422;2023-02-17T00:36:55;2.50;99.90
17053;DHT22;8643;48.824;11.422;2023-02-17T00:39:25;2.60;99.90
17053;DHT22;8643;48.824;11.422;2023-02-17T00:41:53;2.70;99.90
17053;DHT22;8643;48.824;11.422;2023-02-17T00:44:23;2.70;99.90
17053;DHT22;8643;48.824;11.422;2023-02-17T00:49:22;2.70;99.90
17053;DHT22;8643;48.824;11.422;2023-02-17T00:51:57;2.60;99.90
17053;DHT22;8643;48.824;11.422;2023-02-17T00:54:27;2.50;99.90
17053;DHT22;8643;48.824;11.422;2023-02-17T00:56:55;2.60;99.90
17053;DHT22;8643;48.824;11.422;2023-02-17T00:59:24;2.60;99.90
17053;DHT22;8643;48.824;11.422;2023-02-17T01:01:52;1.50;99.90
17053;DHT22;8643;48.824;11.422;2023-02-17T01:04:20;2.70;99.90
17053;DHT22;8643;48.824;11.422;2023-02-17T01:09:19;2.80;99.90
17053;DHT22;8643;48.824;11.422;2023-02-17T01:11:47;2.90;99.90
17053;DHT22;8643;48.824;11.422;2023-02-17T01:14:16;2.90;99.90
17053;DHT22;8643;48.824;11.422;2023-02-17T01:16:47;3.00;99.90
17053;DHT22;8643;48.824;11.422;2023-02-17T01:19:17;3.10;99.90
17053;DHT22;8643;48.824;11.422;2023-02-17T01:21:47;3.20;99.90
17053;DHT22;8643;48.824;11.422;2023-02-17T01:24:16;3.30;99.90
17053;DHT22;8643;48.824;11.422;2023-02-17T01:26:46;2.40;99.90
17053;DHT22;8643;48.824;11.422;2023-02-17T01:29:14;3.30;99.90
17053;DHT22;8643;48.824;11.422;2023-02-17T01:31:43;3.30;99.90
17053;DHT22;8643;48.824;11.422;2023-02-17T01:34:12;3.40;99.90
17053;DHT22;8643;48.824;11.422;2023-02-17T01:36:40;3.40;99.90
17053;DHT22;8643;48.824;11.422;2023-02-17T01:39:12;3.40;99.90
17053;DHT22;8643;48.824;11.422;2023-02-17T01:41:41;3.30;99.90
17053;DHT22;8643;48.824;11.422;2023-02-17T01:44:15;3.30;99.90
17053;DHT22;8643;48.824;11.422;2023-02-17T01:46:47;3.40;99.90
17053;DHT22;8643;48.824;11.422;2023-02-17T01:49:30;3.40;99.90
17053;DHT22;8643;48.824;11.422;2023-02-17T01:52:07;3.40;99.90
17053;DHT22;8643;48.824;11.422;2023-02-17T01:54:42;3.50;99.90
17053;DHT22;8643;48.824;11.422;2023-02-17T01:57:18;3.60;99.90
17053;DHT22;8643;48.824;11.422;2023-02-17T01:59:52;3.60;99.90
17053;DHT22;8643;48.824;11.422;2023-02-17T02:02:21;3.50;99.90
17053;DHT22;8643;48.824;11.422;2023-02-17T02:04:52;3.60;99.90
17053;DHT22;8643;48.824;11.422;2023-02-17T02:07:27;3.70;99.90
17053;DHT22;8643;48.824;11.422;2023-02-17T02:12:29;3.70;99.90
17053;DHT22;8643;48.824;11.422;2023-02-17T02:15:05;3.70;99.90
17053;DHT22;8643;48.824;11.422;2023-02-17T02:17:46;3.70;99.90
17053;DHT22;8643;48.824;11.422;2023-02-17T02:20:56;3.60;99.90
17053;DHT22;8643;48.824;11.422;2023-02-17T02:24:04;3.60;99.90
17053;DHT22;8643;48.824;11.422;2023-02-17T02:27:24;3.60;99.90
17053;DHT22;8643;48.824;11.422;2023-02-17T02:33:37;3.60;99.90
17053;DHT22;8643;48.824;11.422;2023-02-17T02:36:13;3.70;99.90
17053;DHT22;8643;48.824;11.422;2023-02-17T02:38:53;2.90;99.90
17053;DHT22;8643;48.824;11.422;2023-02-17T02:41:30;3.80;99.90
17053;DHT22;8643;48.824;11.422;2023-02-17T02:44:04;3.80;99.90
17053;DHT22;8643;48.824;11.422;2023-02-17T02:46:33;3.90;99.90
17053;DHT22;8643;48.824;11.422;2023-02-17T02:49:04;3.90;99.90
17053;DHT22;8643;48.824;11.422;2023-02-17T02:51:42;4.00;99.90
17053;DHT22;8643;48.824;11.422;2023-02-17T02:54:30;4.10;99.90
17053;DHT22;8643;48.824;11.422;2023-02-17T02:57:20;4.20;99.90
17053;DHT22;8643;48.824;11.422;2023-02-17T03:00:09;5.40;99.90
17053;DHT22;8643;48.824;11.422;2023-02-17T03:02:50;4.30;99.90
17053;DHT22;8643;48.824;11.422;2023-02-17T03:05:31;4.30;99.90
17053;DHT22;8643;48.824;11.422;2023-02-17T03:08:09;4.50;99.90
17053;DHT22;8643;48.824;11.422;2023-02-17T03:10:46;4.50;99.90
17053;DHT22;8643;48.824;11.422;2023-02-17T03:13:16;4.60;99.90
17053;DHT22;8643;48.824;11.422;2023-02-17T03:18:15;4.70;99.90
17053;DHT22;8643;48.824;11.422;2023-02-17T03:20:51;4.80;99.90
17053;DHT22;8643;48.824;11.422;2023-02-17T03:23:21;4.80;99.90
17053;DHT22;8643;48.824;11.422;2023-02-17T03:25:50;4.90;99.90
17053;DHT22;8643;48.824;11.422;2023-02-17T03:28:18;4.90;99.90
17053;DHT22;8643;48.824;11.422;2023-02-17T03:30:47;5.00;99.90
17053;DHT22;8643;48.824;11.422;2023-02-17T03:33:15;5.70;99.90
17053;DHT22;8643;48.824;11.422;2023-02-17T03:35:45;5.20;99.90
17053;DHT22;8643;48.824;11.422;2023-02-17T03:38:13;5.30;99.90
17053;DHT22;8643;48.824;11.422;2023-02-17T03:40:42;5.30;99.90
17053;DHT22;8643;48.824;11.422;2023-02-17T03:43:10;5.40;99.90
17053;DHT22;8643;48.824;11.422;2023-02-17T03:45:38;3.90;99.90
17053;DHT22;8643;48.824;11.422;2023-02-17T03:48:07;5.50;99.90
17053;DHT22;8643;48.824;11.422;2023-02-17T03:50:35;6.20;99.90
17053;DHT22;8643;48.824;11.422;2023-02-17T03:53:05;6.80;99.90
17053;DHT22;8643;48.824;11.422;2023-02-17T03:55:33;5.50;99.90
17053;DHT22;8643;48.824;11.422;2023-02-17T03:58:02;5.60;99.90
17053;DHT22;8643;48.824;11.422;2023-02-17T04:00:30;5.60;99.90
17053;DHT22;8643;48.824;11.422;2023-02-17T04:05:27;5.70;99.90
17053;DHT22;8643;48.824;11.422;2023-02-17T04:07:57;5.80;99.90
17053;DHT22;8643;48.824;11.422;2023-02-17T04:10:26;5.80;99.90
17053;DHT22;8643;48.824;11.422;2023-02-17T04:12:55;5.80;99.90
17053;DHT22;8643;48.824;11.422;2023-02-17T04:15:23;5.90;99.90
17053;DHT22;8643;48.824;11.422;2023-02-17T04:17:51;5.80;99.90
17053;DHT22;8643;48.824;11.422;2023-02-17T04:20:20;5.80;99.90
17053;DHT22;8643;48.824;11.422;2023-02-17T04:22:49;5.90;99.90
17053;DHT22;8643;48.824;11.422;2023-02-17T04:25:17;6.00;99.90
17053;DHT22;8643;48.824;11.422;2023-02-17T04:27:47;6.00;99.90
17053;DHT22;8643;48.824;11.422;2023-02-17T04:30:16;6.00;99.90
17053;DHT22;8643;48.824;11.422;2023-02-17T04:32:44;6.00;99.90
17053;DHT22;8643;48.824;11.422;2023-02-17T04:35:13;5.90;99.90
17053;DHT22;8643;48.824;11.422;2023-02-17T04:37:41;6.00;99.90
17053;DHT22;8643;48.824;11.422;2023-02-17T04:40:11;5.90;99.90
17053;DHT22;8643;48.824;11.422;2023-02-17T04:42:39;5.90;99.90
17053;DHT22;8643;48.824;11.422;2023-02-17T04:45:12;5.80;99.90
17053;DHT22;8643;48.824;11.422;2023-02-17T04:47:41;5.70;99.90
17053;DHT22;8643;48.824;11.422;2023-02-17T04:50:10;5.60;99.90
17053;DHT22;8643;48.824;11.422;2023-02-17T04:52:39;5.60;99.90
17053;DHT22;8643;48.824;11.422;2023-02-17T04:55:07;7.90;99.90
17053;DHT22;8643;48.824;11.422;2023-02-17T05:00:06;5.60;99.90
17053;DHT22;8643;48.824;11.422;2023-02-17T05:02:37;5.70;99.90
17053;DHT22;8643;48.824;11.422;2023-02-17T05:05:06;5.70;99.90
17053;DHT22;8643;48.824;11.422;2023-02-17T05:07:34;5.80;99.90
17053;DHT22;8643;48.824;11.422;2023-02-17T05:10:03;5.90;99.90
17053;DHT22;8643;48.824;11.422;2023-02-17T05:12:32;6.10;99.90
17053;DHT22;8643;48.824;11.422;2023-02-17T05:15:01;5.00;99.90
17053;DHT22;8643;48.824;11.422;2023-02-17T05:17:29;6.30;99.90
17053;DHT22;8643;48.824;11.422;2023-02-17T05:19:59;6.40;99.90
17053;DHT22;8643;48.824;11.422;2023-02-17T05:24:57;6.50;99.90
17053;DHT22;8643;48.824;11.422;2023-02-17T05:27:25;6.50;99.90
17053;DHT22;8643;48.824;11.422;2023-02-17T05:32:23;6.20;99.90
17053;DHT22;8643;48.824;11.422;2023-02-17T05:34:51;6.50;99.90
17053;DHT22;8643;48.824;11.422;2023-02-17T05:37:21;6.50;99.90
17053;DHT22;8643;48.824;11.422;2023-02-17T05:39:49;5.80;99.90
17053;DHT22;8643;48.824;11.422;2023-02-17T05:44:46;6.60;99.90
17053;DHT22;8643;48.824;11.422;2023-02-17T05:47:15;6.70;99.90
17053;DHT22;8643;48.824;11.422;2023-02-17T05:49:43;6.80;99.90
17053;DHT22;8643;48.824;11.422;2023-02-17T05:54:42;7.00;99.90
17053;DHT22;8643;48.824;11.422;2023-02-17T05:57:10;7.00;99.90
17053;DHT22;8643;48.824;11.422;2023-02-17T05:59:39;7.10;99.90
17053;DHT22;8643;48.824;11.422;2023-02-17T06:09:38;7.10;99.90
17053;DHT22;8643;48.824;11.422;2023-02-17T06:12:07;7.10;99.90
17053;DHT22;8643;48.824;11.422;2023-02-17T06:14:36;7.40;99.90
17053;DHT22;8643;48.824;11.422;2023-02-17T06:17:04;7.20;99.90
17053;DHT22;8643;48.824;11.422;2023-02-17T06:22:01;7.30;99.90
17053;DHT22;8643;48.824;11.422;2023-02-17T06:24:30;7.30;99.90
17053;DHT22;8643;48.824;11.422;2023-02-17T06:27:00;7.30;99.90
17053;DHT22;8643;48.824;11.422;2023-02-17T06:29:30;7.40;99.90
17053;DHT22;8643;48.824;11.422;2023-02-17T06:31:58;7.40;99.90
17053;DHT22;8643;48.824;11.422;2023-02-17T06:34:26;7.30;99.90
17053;DHT22;8643;48.824;11.422;2023-02-17T06:36:55;7.30;99.90
17053;DHT22;8643;48.824;11.422;2023-02-17T06:39:23;7.30;99.90
17053;DHT22;8643;48.824;11.422;2023-02-17T06:44:20;7.30;99.90
17053;DHT22;8643;48.824;11.422;2023-02-17T06:46:50;7.30;99.90
17053;DHT22;8643;48.824;11.422;2023-02-17T06:49:19;7.40;99.90
17053;DHT22;8643;48.824;11.422;2023-02-17T06:51:47;7.40;99.90
17053;DHT22;8643;48.824;11.422;2023-02-17T06:54:16;7.40;99.90
17053;DHT22;8643;48.824;11.422;2023-02-17T06:56:44;7.40;99.90
17053;DHT22;8643;48.824;11.422;2023-02-17T06:59:13;7.40;99.90
17053;DHT22;8643;48.824;11.422;2023-02-17T07:04:12;7.40;99.90
17053;DHT22;8643;48.824;11.422;2023-02-17T07:09:10;7.60;99.90
17053;DHT22;8643;48.824;11.422;2023-02-17T07:16:39;7.70;99.90
17053;DHT22;8643;48.824;11.422;2023-02-17T07:19:08;7.60;99.90
17053;DHT22;8643;48.824;11.422;2023-02-17T07:21:37;8.60;99.90
17053;DHT22;8643;48.824;11.422;2023-02-17T07:24:06;7.90;99.90
17053;DHT22;8643;48.824;11.422;2023-02-17T07:26:36;7.80;99.90
17053;DHT22;8643;48.824;11.422;2023-02-17T07:29:06;7.80;99.90
17053;DHT22;8643;48.824;11.422;2023-02-17T07:31:36;7.80;99.90
17053;DHT22;8643;48.824;11.422;2023-02-17T07:34:04;7.80;99.90
17053;DHT22;8643;48.824;11.422;2023-02-17T07:36:33;7.90;99.90
17053;DHT22;8643;48.824;11.422;2023-02-17T07:39:06;8.50;99.90
17053;DHT22;8643;48.824;11.422;2023-02-17T07:41:34;8.00;99.90
17053;DHT22;8643;48.824;11.422;2023-02-17T07:44:08;8.20;99.90
17053;DHT22;8643;48.824;11.422;2023-02-17T07:46:38;8.30;99.90
17053;DHT22;8643;48.824;11.422;2023-02-17T07:49:06;8.30;99.90
17053;DHT22;8643;48.824;11.422;2023-02-17T07:51:35;8.40;99.90
17053;DHT22;8643;48.824;11.422;2023-02-17T07:54:03;8.50;99.90
17053;DHT22;8643;48.824;11.422;2023-02-17T07:56:33;8.80;99.90
17053;DHT22;8643;48.824;11.422;2023-02-17T07:59:02;8.60;99.90
17053;DHT22;8643;48.824;11.422;2023-02-17T08:01:30;8.60;99.90
17053;DHT22;8643;48.824;11.422;2023-02-17T08:06:28;8.70;99.90
17053;DHT22;8643;48.824;11.422;2023-02-17T08:08:57;9.00;99.90
17053;DHT22;8643;48.824;11.422;2023-02-17T08:11:44;8.50;99.90
17053;DHT22;8643;48.824;11.422;2023-02-17T08:14:30;8.80;99.90
17053;DHT22;8643;48.824;11.422;2023-02-17T08:19:28;9.10;99.90
17053;DHT22;8643;48.824;11.422;2023-02-17T08:22:13;9.10;99.90
17053;DHT22;8643;48.824;11.422;2023-02-17T08:24:42;9.10;99.90
17053;DHT22;8643;48.824;11.422;2023-02-17T08:27:12;9.10;99.90
17053;DHT22;8643;48.824;11.422;2023-02-17T08:29:41;9.10;99.90
17053;DHT22;8643;48.824;11.422;2023-02-17T08:35:43;9.20;99.90
17053;DHT22;8643;48.824;11.422;2023-02-17T08:38:12;9.20;99.90
17053;DHT22;8643;48.824;11.422;2023-02-17T08:40:40;9.20;99.90
17053;DHT22;8643;48.824;11.422;2023-02-17T08:43:11;9.30;99.90
17053;DHT22;8643;48.824;11.422;2023-02-17T08:45:39;10.00;99.90
17053;DHT22;8643;48.824;11.422;2023-02-17T08:50:36;9.50;99.90
17053;DHT22;8643;48.824;11.422;2023-02-17T08:53:05;9.60;99.90
17053;DHT22;8643;48.824;11.422;2023-02-17T08:55:33;9.70;99.90
17053;DHT22;8643;48.824;11.422;2023-02-17T08:58:16;9.70;99.90
17053;DHT22;8643;48.824;11.422;2023-02-17T09:00:45;9.80;99.90
17053;DHT22;8643;48.824;11.422;2023-02-17T09:03:13;9.90;99.90
17053;DHT22;8643;48.824;11.422;2023-02-17T09:05:42;9.90;99.90
17053;DHT22;8643;48.824;11.422;2023-02-17T09:08:11;10.00;99.90
17053;DHT22;8643;48.824;11.422;2023-02-17T09:10:39;10.20;99.90
17053;DHT22;8643;48.824;11.422;2023-02-17T09:13:08;10.20;99.90
17053;DHT22;8643;48.824;11.422;2023-02-17T09:15:38;10.50;99.90
17053;DHT22;8643;48.824;11.422;2023-02-17T09:18:06;10.50;99.90
17053;DHT22;8643;48.824;11.422;2023-02-17T09:20:35;10.60;99.90
17053;DHT22;8643;48.824;11.422;2023-02-17T09:23:06;10.60;99.90
17053;DHT22;8643;48.824;11.422;2023-02-17T09:25:34;10.50;99.90
17053;DHT22;8643;48.824;11.422;2023-02-17T09:30:32;10.40;99.90
17053;DHT22;8643;48.824;11.422;2023-02-17T09:33:02;10.50;99.90
17053;DHT22;8643;48.824;11.422;2023-02-17T09:35:31;10.50;99.90
17053;DHT22;8643;48.824;11.422;2023-02-17T09:38:00;10.50;99.90
17053;DHT22;8643;48.824;11.422;2023-02-17T09:40:37;10.50;99.90
17053;DHT22;8643;48.824;11.422;2023-02-17T09:43:12;10.60;99.90
17053;DHT22;8643;48.824;11.422;2023-02-17T09:45:46;10.60;99.90
17053;DHT22;8643;48.824;11.422;2023-02-17T09:48:23;10.70;99.90
17053;DHT22;8643;48.824;11.422;2023-02-17T09:50:58;10.70;99.90
17053;DHT22;8643;48.824;11.422;2023-02-17T09:53:36;10.90;99.90
17053;DHT22;8643;48.824;11.422;2023-02-17T09:56:13;10.70;99.90
17053;DHT22;8643;48.824;11.422;2023-02-17T09:58:47;10.60;99.90
17053;DHT22;8643;48.824;11.422;2023-02-17T10:01:23;10.70;99.90
17053;DHT22;8643;48.824;11.422;2023-02-17T10:04:01;10.70;99.90
17053;DHT22;8643;48.824;11.422;2023-02-17T10:06:37;10.80;99.90
17053;DHT22;8643;48.824;11.422;2023-02-17T10:09:11;10.00;99.90
17053;DHT22;8643;48.824;11.422;2023-02-17T10:11:48;10.70;99.90
17053;DHT22;8643;48.824;11.422;2023-02-17T10:14:27;10.80;99.90
17053;DHT22;8643;48.824;11.422;2023-02-17T10:17:02;11.30;99.90
17053;DHT22;8643;48.824;11.422;2023-02-17T10:19:42;10.90;99.90
17053;DHT22;8643;48.824;11.422;2023-02-17T10:22:22;10.90;99.90
17053;DHT22;8643;48.824;11.422;2023-02-17T10:27:35;11.10;99.90
17053;DHT22;8643;48.824;11.422;2023-02-17T10:30:30;10.50;99.90
17053;DHT22;8643;48.824;11.422;2023-02-17T10:33:12;11.20;99.90
17053;DHT22;8643;48.824;11.422;2023-02-17T10:35:51;11.20;99.90
17053;DHT22;8643;48.824;11.422;2023-02-17T10:38:33;11.20;99.90
17053;DHT22;8643;48.824;11.422;2023-02-17T10:41:13;11.30;99.90
17053;DHT22;8643;48.824;11.422;2023-02-17T10:43:45;11.30;99.90
17053;DHT22;8643;48.824;11.422;2023-02-17T10:46:18;11.30;99.90
17053;DHT22;8643;48.824;11.422;2023-02-17T10:48:55;11.40;99.90
17053;DHT22;8643;48.824;11.422;2023-02-17T10:51:28;11.30;99.90
17053;DHT22;8643;48.824;11.422;2023-02-17T10:54:01;11.40;99.90
17053;DHT22;8643;48.824;11.422;2023-02-17T10:56:35;11.40;99.90
17053;DHT22;8643;48.824;11.422;2023-02-17T10:59:15;11.20;99.90
17053;DHT22;8643;48.824;11.422;2023-02-17T11:01:49;11.40;99.90
17053;DHT22;8643;48.824;11.422;2023-02-17T11:04:17;11.50;99.90
17053;DHT22;8643;48.824;11.422;2023-02-17T11:06:49;11.50;99.90
17053;DHT22;8643;48.824;11.422;2023-02-17T11:09:23;11.50;99.90
17053;DHT22;8643;48.824;11.422;2023-02-17T11:11:58;11.50;99.90
17053;DHT22;8643;48.824;11.422;2023-02-17T11:14:32;12.70;99.90
17053;DHT22;8643;48.824;11.422;2023-02-17T11:17:15;11.40;99.90
17053;DHT22;8643;48.824;11.422;2023-02-17T11:19:59;11.40;99.90
17053;DHT22;8643;48.824;11.422;2023-02-17T11:22:35;11.40;99.90
17053;DHT22;8643;48.824;11.422;2023-02-17T11:25:20;11.50;99.90
17053;DHT22;8643;48.824;11.422;2023-02-17T11:27:51;11.40;99.90
17053;DHT22;8643;48.824;11.422;2023-02-17T11:30:23;11.40;99.90
17053;DHT22;8643;48.824;11.422;2023-02-17T11:32:54;11.50;99.90
17053;DHT22;8643;48.824;11.422;2023-02-17T11:35:25;11.50;99.90
17053;DHT22;8643;48.824;11.422;2023-02-17T11:38:02;11.60;99.90
17053;DHT22;8643;48.824;11.422;2023-02-17T11:40:38;11.70;99.90
17053;DHT22;8643;48.824;11.422;2023-02-17T11:43:14;11.80;99.90
17053;DHT22;8643;48.824;11.422;2023-02-17T11:45:50;11.80;99.90
17053;DHT22;8643;48.824;11.422;2023-02-17T11:48:39;11.90;99.90
17053;DHT22;8643;48.824;11.422;2023-02-17T11:51:51;12.00;99.90
17053;DHT22;8643;48.824;11.422;2023-02-17T11:54:34;12.10;99.90
17053;DHT22;8643;48.824;11.422;2023-02-17T11:57:17;12.20;99.90
17053;DHT22;8643;48.824;11.422;2023-02-17T12:00:05;12.10;99.90
17053;DHT22;8643;48.824;11.422;2023-02-17T12:03:22;12.20;99.90
17053;DHT22;8643;48.824;11.422;2023-02-17T12:06:13;12.30;99.90
17053;DHT22;8643;48.824;11.422;2023-02-17T12:08:59;12.40;99.90
17053;DHT22;8643;48.824;11.422;2023-02-17T12:11:45;12.50;99.90
17053;DHT22;8643;48.824;11.422;2023-02-17T12:14:39;12.50;99.90
17053;DHT22;8643;48.824;11.422;2023-02-17T12:17:23;12.40;99.90
17053;DHT22;8643;48.824;11.422;2023-02-17T12:20:09;12.40;99.90
17053;DHT22;8643;48.824;11.422;2023-02-17T12:23:05;12.40;99.90
17053;DHT22;8643;48.824;11.422;2023-02-17T12:28:40;12.40;99.90
17053;DHT22;8643;48.824;11.422;2023-02-17T12:31:36;12.30;99.90
17053;DHT22;8643;48.824;11.422;2023-02-17T12:34:27;9.90;99.90
17053;DHT22;8643;48.824;11.422;2023-02-17T12:37:00;12.20;99.90
17053;DHT22;8643;48.824;11.422;2023-02-17T12:39:34;12.10;99.90
17053;DHT22;8643;48.824;11.422;2023-02-17T12:42:12;12.00;99.90
17053;DHT22;8643;48.824;11.422;2023-02-17T12:44:50;11.80;99.90
17053;DHT22;8643;48.824;11.422;2023-02-17T12:47:25;11.80;99.90
17053;DHT22;8643;48.824;11.422;2023-02-17T12:50:01;11.80;99.90
17053;DHT22;8643;48.824;11.422;2023-02-17T12:52:37;11.80;99.90
17053;DHT22;8643;48.824;11.422;2023-02-17T12:55:12;11.80;99.90
17053;DHT22;8643;48.824;11.422;2023-02-17T12:57:48;11.80;99.90
17053;DHT22;8643;48.824;11.422;2023-02-17T13:00:28;11.70;99.90
17053;DHT22;8643;48.824;11.422;2023-02-17T13:03:02;11.70;99.90
17053;DHT22;8643;48.824;11.422;2023-02-17T13:05:37;11.50;99.90
17053;DHT22;8643;48.824;11.422;2023-02-17T13:08:15;11.30;99.90
17053;DHT22;8643;48.824;11.422;2023-02-17T13:10:59;11.00;99.90
17053;DHT22;8643;48.824;11.422;2023-02-17T13:13:30;10.80;99.90
17053;DHT22;8643;48.824;11.422;2023-02-17T13:16:04;10.60;99.90
17053;DHT22;8643;48.824;11.422;2023-02-17T13:18:36;9.50;99.90
17053;DHT22;8643;48.824;11.422;2023-02-17T13:21:24;10.50;99.90
17053;DHT22;8643;48.824;11.422;2023-02-17T13:24:01;10.40;99.90
17053;DHT22;8643;48.824;11.422;2023-02-17T13:26:33;10.50;99.90
17053;DHT22;8643;48.824;11.422;2023-02-17T13:29:31;10.40;99.90
17053;DHT22;8643;48.824;11.422;2023-02-17T13:32:05;10.60;99.90
17053;DHT22;8643;48.824;11.422;2023-02-17T13:34:38;10.50;99.90
17053;DHT22;8643;48.824;11.422;2023-02-17T13:37:22;10.50;99.90
17053;DHT22;8643;48.824;11.422;2023-02-17T13:39:54;10.40;99.90
17053;DHT22;8643;48.824;11.422;2023-02-17T13:42:40;9.90;99.90
17053;DHT22;8643;48.824;11.422;2023-02-17T13:45:17;10.40;99.90
17053;DHT22;8643;48.824;11.422;2023-02-17T13:47:52;10.30;99.90
17053;DHT22;8643;48.824;11.422;2023-02-17T13:50:28;10.30;99.90
17053;DHT22;8643;48.824;11.422;2023-02-17T13:52:59;10.30;99.90
17053;DHT22;8643;48.824;11.422;2023-02-17T13:55:28;10.30;99.90
17053;DHT22;8643;48.824;11.422;2023-02-17T13:57:58;10.20;99.90
17053;DHT22;8643;48.824;11.422;2023-02-17T14:00:28;10.40;99.90
17053;DHT22;8643;48.824;11.422;2023-02-17T14:03:10;10.50;99.90
17053;DHT22;8643;48.824;11.422;2023-02-17T14:05:47;10.50;99.90
17053;DHT22;8643;48.824;11.422;2023-02-17T14:08:21;10.50;99.90
17053;DHT22;8643;48.824;11.422;2023-02-17T14:10:56;10.60;99.90
17053;DHT22;8643;48.824;11.422;2023-02-17T14:13:25;10.60;99.90
17053;DHT22;8643;48.824;11.422;2023-02-17T14:18:32;10.60;99.90
17053;DHT22;8643;48.824;11.422;2023-02-17T14:21:06;10.60;99.90
17053;DHT22;8643;48.824;11.422;2023-02-17T14:23:40;10.70;99.90
17053;DHT22;8643;48.824;11.422;2023-02-17T14:26:23;10.70;99.90
17053;DHT22;8643;48.824;11.422;2023-02-17T14:28:57;10.80;99.90
17053;DHT22;8643;48.824;11.422;2023-02-17T14:34:00;10.90;99.90
17053;DHT22;8643;48.824;11.422;2023-02-17T14:36:34;11.00;99.90
17053;DHT22;8643;48.824;11.422;2023-02-17T14:39:13;11.10;99.90
17053;DHT22;8643;48.824;11.422;2023-02-17T14:41:42;11.30;99.90
17053;DHT22;8643;48.824;11.422;2023-02-17T14:44:11;11.40;99.90
17053;DHT22;8643;48.824;11.422;2023-02-17T14:46:39;11.60;99.90
17053;DHT22;8643;48.824;11.422;2023-02-17T14:49:09;11.50;99.90
17053;DHT22;8643;48.824;11.422;2023-02-17T14:51:38;11.60;99.90
17053;DHT22;8643;48.824;11.422;2023-02-17T14:54:13;11.70;99.90
17053;DHT22;8643;48.824;11.422;2023-02-17T14:56:45;12.00;99.90
17053;DHT22;8643;48.824;11.422;2023-02-17T14:59:20;11.70;99.90
17053;DHT22;8643;48.824;11.422;2023-02-17T15:04:19;11.70;99.90
17053;DHT22;8643;48.824;11.422;2023-02-17T15:06:49;11.60;99.90
17053;DHT22;8643;48.824;11.422;2023-02-17T15:09:26;11.60;99.90
17053;DHT22;8643;48.824;11.422;2023-02-17T15:11:57;11.60;99.90
17053;DHT22;8643;48.824;11.422;2023-02-17T15:14:26;12.40;99.90
17053;DHT22;8643;48.824;11.422;2023-02-17T15:16:54;11.70;99.90
17053;DHT22;8643;48.824;11.422;2023-02-17T15:19:24;11.70;99.90
17053;DHT22;8643;48.824;11.422;2023-02-17T15:21:53;11.80;99.90
17053;DHT22;8643;48.824;11.422;2023-02-17T15:24:25;11.80;99.90
17053;DHT22;8643;48.824;11.422;2023-02-17T15:26:59;11.80;99.90
17053;DHT22;8643;48.824;11.422;2023-02-17T15:29:29;11.80;99.90
17053;DHT22;8643;48.824;11.422;2023-02-17T15:31:59;11.80;99.90
17053;DHT22;8643;48.824;11.422;2023-02-17T15:34:32;9.10;99.90
17053;DHT22;8643;48.824;11.422;2023-02-17T15:37:02;11.80;99.90
17053;DHT22;8643;48.824;11.422;2023-02-17T15:39:34;11.80;99.90
17053;DHT22;8643;48.824;11.422;2023-02-17T15:42:06;11.80;99.90
17053;DHT22;8643;48.824;11.422;2023-02-17T15:44:43;11.80;99.90
17053;DHT22;8643;48.824;11.422;2023-02-17T15:47:16;12.70;99.90
17053;DHT22;8643;48.824;11.422;2023-02-17T15:49:48;11.80;99.90
17053;DHT22;8643;48.824;11.422;2023-02-17T15:52:16;11.80;99.90
17053;DHT22;8643;48.824;11.422;2023-02-17T15:54:45;11.80;99.90
17053;DHT22;8643;48.824;11.422;2023-02-17T15:57:17;11.80;99.90
17053;DHT22;8643;48.824;11.422;2023-02-17T15:59:47;11.80;99.90
17053;DHT22;8643;48.824;11.422;2023-02-17T16:02:22;11.90;99.90
17053;DHT22;8643;48.824;11.422;2023-02-17T16:04:53;11.60;99.90
17053;DHT22;8643;48.824;11.422;2023-02-17T16:09:50;11.70;99.90
17053;DHT22;8643;48.824;11.422;2023-02-17T16:12:22;11.70;99.90
17053;DHT22;8643;48.824;11.422;2023-02-17T16:14:53;11.70;99.90
17053;DHT22;8643;48.824;11.422;2023-02-17T16:17:22;11.60;99.90
17053;DHT22;8643;48.824;11.422;2023-02-17T16:19:53;11.60;99.90
17053;DHT22;8643;48.824;11.422;2023-02-17T16:22:22;11.70;99.90
17053;DHT22;8643;48.824;11.422;2023-02-17T16:27:19;11.60;99.90
17053;DHT22;8643;48.824;11.422;2023-02-17T16:29:49;11.50;99.90
17053;DHT22;8643;48.824;11.422;2023-02-17T16:32:18;11.40;99.90
17053;DHT22;8643;48.824;11.422;2023-02-17T16:34:46;11.30;99.90
17053;DHT22;8643;48.824;11.422;2023-02-17T16:37:16;11.30;99.90
17053;DHT22;8643;48.824;11.422;2023-02-17T16:39:45;11.20;99.90
17053;DHT22;8643;48.824;11.422;2023-02-17T16:42:14;11.10;99.90
17053;DHT22;8643;48.824;11.422;2023-02-17T16:44:43;11.00;99.90
17053;DHT22;8643;48.824;11.422;2023-02-17T16:47:18;11.00;99.90
17053;DHT22;8643;48.824;11.422;2023-02-17T16:49:48;10.90;99.90
17053;DHT22;8643;48.824;11.422;2023-02-17T16:52:22;10.90;99.90
17053;DHT22;8643;48.824;11.422;2023-02-17T16:54:52;10.80;99.90
17053;DHT22;8643;48.824;11.422;2023-02-17T16:57:21;10.70;99.90
17053;DHT22;8643;48.824;11.422;2023-02-17T16:59:50;10.60;99.90
17053;DHT22;8643;48.824;11.422;2023-02-17T17:02:18;10.70;99.90
17053;DHT22;8643;48.824;11.422;2023-02-17T17:04:47;10.60;99.90
17053;DHT22;8643;48.824;11.422;2023-02-17T17:07:16;10.50;99.90
17053;DHT22;8643;48.824;11.422;2023-02-17T17:09:50;10.50;99.90
17053;DHT22;8643;48.824;11.422;2023-02-17T17:15:38;10.60;99.90
17053;DHT22;8643;48.824;11.422;2023-02-17T17:23:16;10.60;99.90
17053;DHT22;8643;48.824;11.422;2023-02-17T17:34:13;10.80;99.90
17053;DHT22;8643;48.824;11.422;2023-02-17T17:36:44;10.80;99.90
17053;DHT22;8643;48.824;11.422;2023-02-17T17:39:16;10.70;99.90
17053;DHT22;8643;48.824;11.422;2023-02-17T17:42:11;10.80;99.90
17053;DHT22;8643;48.824;11.422;2023-02-17T17:44:42;10.70;99.90
17053;DHT22;8643;48.824;11.422;2023-02-17T17:49:57;10.90;99.90
17053;DHT22;8643;48.824;11.422;2023-02-17T17:52:29;10.90;99.90
17053;DHT22;8643;48.824;11.422;2023-02-17T17:55:18;11.00;99.90
17053;DHT22;8643;48.824;11.422;2023-02-17T18:05:56;11.00;99.90
17053;DHT22;8643;48.824;11.422;2023-02-17T18:08:39;11.00;99.90
17053;DHT22;8643;48.824;11.422;2023-02-17T18:11:38;11.00;99.90